This is the latest recevied weather packets stored in our database for station/object SA6GOM-3. If no packets are shown the sender has not sent any weather packets the latest 10 day(s).
| Time | Temp. | Humidity | Pressure | Rain* | Wind** | Luminosity | Snow |
|---|---|---|---|---|---|---|---|
| 1777746939 | 16.67° C | 52% | 1011.4 hPa | - | - | - | - |
| 1777743339 | 18.89° C | 46% | 1011.5 hPa | - | - | - | - |
| 1777739739 | 20° C | 42% | 1011.6 hPa | - | - | - | - |
| 1777736139 | 21.67° C | 38% | 1011.9 hPa | - | - | - | - |
| 1777732539 | 22.22° C | 38% | 1012.5 hPa | - | - | - | - |
| 1777728939 | 22.78° C | 37% | 1013.3 hPa | - | - | - | - |
| 1777725339 | 23.33° C | 37% | 1014 hPa | - | - | - | - |
| 1777721738 | 23.33° C | 37% | 1014.5 hPa | - | - | - | - |
| 1777718138 | 23.33° C | 37% | 1015.1 hPa | - | - | - | - |
| 1777714538 | 24.44° C | 37% | 1015.6 hPa | - | - | - | - |
| 1777710938 | 30.56° C | 26% | 1016.4 hPa | - | - | - | - |
| 1777707338 | 26.11° C | 32% | 1016.5 hPa | - | - | - | - |
| 1777703738 | 30° C | 27% | 1017 hPa | - | - | - | - |
| 1777700138 | 25° C | 32% | 1017.5 hPa | - | - | - | - |
| 1777696538 | 17.22° C | 44% | 1018.3 hPa | - | - | - | - |
| 1777692938 | 3.89° C | 80% | 1019.2 hPa | - | - | - | - |
| 1777689338 | 3.89° C | 77% | 1020 hPa | - | - | - | - |
| 1777685738 | 3.89° C | 73% | 1020.6 hPa | - | - | - | - |
| 1777682138 | 5° C | 73% | 1021.5 hPa | - | - | - | - |
| 1777678537 | 5° C | 73% | 1021.9 hPa | - | - | - | - |
| 1777674937 | 6.11° C | 69% | 1022.5 hPa | - | - | - | - |
| 1777671337 | 6.67° C | 66% | 1022.8 hPa | - | - | - | - |
| 1777667737 | 8.89° C | 65% | 1023.2 hPa | - | - | - | - |
| 1777664137 | 9.44° C | 59% | 1023.7 hPa | - | - | - | - |
| 1777660537 | 12.78° C | 50% | 1024 hPa | - | - | - | - |
* Rain since midnight (hover to see other rain measurements)
** Current wind speed in m/s (hover to see current wind gust speed)